Flight Track Log - Related Links

Times and Time Zones

All times are in EDT time to prevent confusion due to time zone crossing. See the SWA2852 flight status page for this flight to view local times or setup timezone preferences in your user account.


Time Position Orientation Groundspeed Altitude Reporting Facility
EDT Latitude Longitude Course Direction KTS MPH feet Rate Location/Type
Thu 06:39:40 PM 41.7667 -87.7667 226° Southwest 142 163 2,100  Level Chicago TRACON
Thu 06:41:34 PM 41.7061 -87.8500 226° Southwest 167 192 6,300 2,489 Climbing Chicago Center
Thu 06:42:36 PM 41.6553 -87.9056 219° Southwest 229 264 9,400 3,677 Climbing Chicago Center
Thu 06:43:38 PM 41.6000 -87.9644 219° Southwest 253 291 13,900 3,968 Climbing Chicago Center
Thu 06:44:40 PM 41.5383 -88.0311 219° Southwest 243 280 17,600 3,290 Climbing Chicago Center
Thu 06:45:42 PM 41.4861 -88.0889 220° Southwest 248 285 20,700 2,565 Climbing Chicago Center
Thu 06:46:44 PM 41.4308 -88.1489 219° Southwest 264 304 22,900 1,500 Climbing Chicago Center
Thu 06:47:46 PM 41.3531 -88.2036 208° Southwest 272 313 23,800 1,415 Climbing Chicago Center
Thu 06:48:47 PM 41.2794 -88.2369 199° South 280 322 25,800 1,415 Climbing Chicago Center
Thu 06:49:49 PM 41.1992 -88.2736 199° South 305 351 26,700 629 Climbing Chicago Center
Thu 06:50:51 PM 41.1058 -88.3158 199° South 350 403 27,100 1,113 Climbing Chicago Center
Thu 06:51:53 PM 41.0061 -88.3611 199° South 377 434 29,000 2,032 Climbing Chicago Center
Thu 06:52:55 PM 40.8881 -88.4144 199° South 377 434 31,300 2,274 Climbing Chicago Center
Thu 06:53:57 PM 40.8033 -88.4800 210° Southwest 371 427 33,700 2,323 Climbing Chicago Center
Thu 06:54:59 PM 40.7417 -88.5736 229° Southwest 343 395 36,100 1,742 Climbing Chicago Center
Thu 06:56:01 PM 40.6803 -88.6611 227° Southwest 329 379 37,300 919 Climbing Chicago Center
Thu 06:57:03 PM 40.6192 -88.7544 229° Southwest 334 384 38,000 732 Climbing Chicago Center
Thu 06:58:04 PM 40.5539 -88.8503 228° Southwest 342 394 38,800 976 Climbing Chicago Center
Thu 06:59:06 PM 40.4928 -88.9419 229° Southwest 334 384 40,000 581 Climbing Chicago Center
Thu 07:00:08 PM 40.4331 -89.0342 230° Southwest 331 381 40,000  Level Chicago Center
Thu 07:01:10 PM 40.3706 -89.1256 228° Southwest 333 383 40,000  Level Chicago Center
Thu 07:02:12 PM 40.2958 -89.2361 228° Southwest 335 386 40,000  Level Chicago Center
Thu 07:03:14 PM 40.2328 -89.3314 229° Southwest 341 392 40,000  Level Chicago Center
Thu 07:04:15 PM 40.1697 -89.4214 227° Southwest 335 386 40,000  Level Chicago Center
Thu 07:05:17 PM 40.1067 -89.5172 229° Southwest 344 396 40,000  Level Chicago Center
Thu 07:06:19 PM 40.0439 -89.6114 229° Southwest 340 391 40,000  Level Chicago Center
Thu 07:07:12 PM 39.9933 -89.6842 228° Southwest 339 390 40,000  Level Kansas City Center
Thu 07:08:12 PM 39.9308 -89.7764 229° Southwest 339 390 40,000  Level Kansas City Center
Thu 07:09:16 PM 39.8561 -89.8842 228° Southwest 335 386 40,000  Level Kansas City Center
Thu 07:10:17 PM 39.7944 -89.9747 228° Southwest 334 384 40,000  Level Kansas City Center
Thu 07:11:19 PM 39.7336 -90.0633 228° Southwest 330 380 40,000  Level Kansas City Center
Thu 07:12:22 PM 39.6781 -90.1444 228° Southwest 328 377 40,000  Level Kansas City Center
Thu 07:13:22 PM 39.6056 -90.2497 228° Southwest 328 377 40,000  Level Kansas City Center
Thu 07:14:26 PM 39.5442 -90.3386 228° Southwest 331 381 40,000  Level Kansas City Center
Thu 07:15:27 PM 39.4822 -90.4281 228° Southwest 334 384 40,000  Level Kansas City Center
Thu 07:16:29 PM 39.4214 -90.5161 228° Southwest 332 382 40,000  Level Kansas City Center
Thu 07:17:31 PM 39.3592 -90.6033 227° Southwest 332 382 40,000  Level Kansas City Center
Thu 07:18:32 PM 39.2969 -90.6925 228° Southwest 334 384 40,000  Level Kansas City Center
Thu 07:19:35 PM 39.2217 -90.7983 227° Southwest 335 386 40,000  Level Kansas City Center
Thu 07:20:35 PM 39.1617 -90.8839 228° Southwest 328 377 40,000  Level Kansas City Center
Thu 07:21:38 PM 39.0975 -90.9750 228° Southwest 339 390 40,000  Level Kansas City Center
Thu 07:22:39 PM 39.0350 -91.0636 228° Southwest 339 390 40,000  Level Kansas City Center
Thu 07:23:43 PM 38.9708 -91.1536 227° Southwest 342 394 40,000  Level Kansas City Center
Thu 07:24:43 PM 38.8933 -91.2622 228° Southwest 345 397 40,000  Level Kansas City Center
Thu 07:25:47 PM 38.8300 -91.3575 230° Southwest 350 403 40,000  Level Kansas City Center
Thu 07:26:47 PM 38.7750 -91.4628 236° Southwest 356 410 40,000  Level Kansas City Center
Thu 07:27:51 PM 38.7172 -91.5644 234° Southwest 354 407 40,000  Level Kansas City Center
Thu 07:28:52 PM 38.6511 -91.6831 235° Southwest 355 409 40,000  Level Kansas City Center
Thu 07:29:53 PM 38.5933 -91.7853 234° Southwest 354 407 40,000  Level Kansas City Center
Thu 07:30:57 PM 38.5397 -91.8900 237° Southwest 352 405 40,000  Level Kansas City Center
Thu 07:31:58 PM 38.4911 -92.0014 241° Southwest 356 410 40,000  Level Kansas City Center
Thu 07:32:59 PM 38.4425 -92.1119 241° Southwest 356 410 40,000  Level Kansas City Center
Thu 07:34:03 PM 38.3939 -92.2200 240° Southwest 353 406 40,000  Level Kansas City Center
Thu 07:35:04 PM 38.3347 -92.3503 240° Southwest 353 406 40,000  Level Kansas City Center
Thu 07:36:04 PM 38.2869 -92.4583 241° Southwest 352 405 40,000  Level Kansas City Center
Thu 07:37:06 PM 38.2389 -92.5647 240° Southwest 349 402 40,000  Level Kansas City Center
Thu 07:38:09 PM 38.1894 -92.6744 240° Southwest 349 402 40,000  Level Kansas City Center
Thu 07:39:14 PM 38.1425 -92.7772 240° Southwest 348 400 40,000  Level Kansas City Center
Thu 07:40:14 PM 38.0928 -92.8833 239° Southwest 349 402 40,000  Level Kansas City Center
Thu 07:41:15 PM 38.0347 -93.0103 240° Southwest 346 398 40,000  Level Kansas City Center
Thu 07:42:16 PM 37.9856 -93.1175 240° Southwest 350 403 40,000  Level Kansas City Center
Thu 07:43:20 PM 37.9369 -93.2239 240° Southwest 349 402 40,000  Level Kansas City Center
Thu 07:44:20 PM 37.8869 -93.3311 239° Southwest 352 405 40,000  Level Kansas City Center
Thu 07:45:24 PM 37.8364 -93.4386 239° Southwest 353 406 40,000  Level Kansas City Center
Thu 07:46:25 PM 37.7872 -93.5453 240° Southwest 353 406 40,000  Level Kansas City Center
Thu 07:47:28 PM 37.7367 -93.6519 239° Southwest 351 404 40,000  Level Kansas City Center
Thu 07:48:29 PM 37.6783 -93.7775 240° Southwest 346 398 40,000  Level Kansas City Center
Thu 07:49:29 PM 37.6297 -93.8839 240° Southwest 348 400 40,000  Level Kansas City Center
Thu 07:50:33 PM 37.5808 -93.9889 240° Southwest 347 399 40,000  Level Kansas City Center
Thu 07:51:33 PM 37.5306 -94.0928 239° Southwest 347 399 40,000  Level Kansas City Center
Thu 07:52:37 PM 37.4825 -94.1917 239° Southwest 347 399 40,000  Level Kansas City Center
Thu 07:53:39 PM 37.4331 -94.2942 239° Southwest 344 396 40,000  Level Kansas City Center
Thu 07:54:40 PM 37.3736 -94.4172 239° Southwest 344 396 40,000  Level Kansas City Center
Thu 07:55:41 PM 37.3247 -94.5222 240° Southwest 346 398 40,000  Level Kansas City Center
Thu 07:56:44 PM 37.2744 -94.6242 238° Southwest 344 396 40,000  Level Kansas City Center
Thu 07:57:44 PM 37.2239 -94.7278 239° Southwest 347 399 40,000  Level Kansas City Center
Thu 07:58:47 PM 37.1739 -94.8336 239° Southwest 351 404 40,000  Level Kansas City Center
Thu 07:59:48 PM 37.1225 -94.9386 238° Southwest 352 405 40,000  Level Kansas City Center
Thu 08:00:52 PM 37.0711 -95.0450 239° Southwest 355 409 40,000  Level Kansas City Center
Thu 08:01:52 PM 37.0081 -95.1736 238° Southwest 359 413 40,000  Level Kansas City Center
Thu 08:02:55 PM 36.9553 -95.2803 238° Southwest 362 417 40,000  Level Kansas City Center
Thu 08:03:55 PM 36.9019 -95.3875 238° Southwest 363 418 40,000  Level Kansas City Center
Thu 08:04:57 PM 36.8494 -95.4944 238° Southwest 363 418 40,000 -49 Level Kansas City Center
Thu 08:05:58 PM 36.7964 -95.6003 238° Southwest 362 417 39,900 -528 Descending Kansas City Center
Thu 08:07:02 PM 36.7444 -95.7069 239° Southwest 362 417 38,900 -960 Descending Kansas City Center
Thu 08:08:03 PM 36.6914 -95.8111 238° Southwest 359 413 37,900 -1,033 Descending Kansas City Center
Thu 08:09:04 PM 36.6294 -95.9344 238° Southwest 353 406 36,800 -1,016 Descending Kansas City Center
Thu 08:10:07 PM 36.5792 -96.0358 238° Southwest 348 400 35,800 -912 Descending Kansas City Center
Thu 08:11:09 PM 36.5283 -96.1367 238° Southwest 347 399 34,900 -1,561 Descending Kansas City Center
Thu 08:12:10 PM 36.4778 -96.2375 238° Southwest 345 397 32,600 -2,311 Descending Kansas City Center
Thu 08:13:11 PM 36.4286 -96.3339 238° Southwest 337 388 30,200 -2,226 Descending Kansas City Center
Thu 08:14:14 PM 36.3817 -96.4244 237° Southwest 319 367 28,000 -2,016 Descending Kansas City Center
Thu 08:15:16 PM 36.3281 -96.5250 237° Southwest 296 341 26,000 -1,415 Descending Kansas City Center
Thu 08:16:17 PM 36.2656 -96.5939 222° Southwest 297 342 25,100 -984 Descending Kansas City Center
Thu 08:17:18 PM 36.2036 -96.6644 223° Southwest 301 346 24,000 -1,548 Descending Kansas City Center
Thu 08:18:21 PM 36.1458 -96.7336 224° Southwest 293 337 21,900 -1,887 Descending Kansas City Center
Thu 08:19:22 PM 36.0950 -96.7928 223° Southwest 282 325 20,100 -1,951 Descending Kansas City Center
Thu 08:20:24 PM 36.0319 -96.8669 224° Southwest 265 305 17,900 -2,000 Descending Kansas City Center
Thu 08:21:25 PM 35.9758 -96.9319 223° Southwest 272 313 16,000 -2,304 Descending Kansas City Center
Thu 08:22:29 PM 35.9131 -97.0036 223° Southwest 299 344 13,100 -2,274 Descending Kansas City Center
Thu 08:23:29 PM 35.8503 -97.0772 224° Southwest 310 357 11,300 -1,604 Descending Kansas City Center
Thu 08:24:10 PM 35.8000 -97.1372 224° Southwest 289 333 10,400 -1,307 Descending Fort Worth Center
Thu 08:25:10 PM 35.7439 -97.1989 222° Southwest 265 305 9,100 -1,339 Descending Fort Worth Center
Thu 08:26:11 PM 35.6897 -97.2628 224° Southwest 265 305 7,700 -1,180 Descending Fort Worth Center
Thu 08:27:12 PM 35.6356 -97.3267 224° Southwest 274 315 6,700 -843 Descending Fort Worth Center
Thu 08:28:12 PM 35.5792 -97.3881 222° Southwest 270 311 6,000 -347 Descending Fort Worth Center
Thu 08:29:13 PM 35.5272 -97.4492 224° Southwest 262 302 6,000 -298 Level Fort Worth Center
Thu 08:30:13 PM 35.4583 -97.4772 198° South 274 315 5,400 -793 Descending Fort Worth Center
Thu 08:31:14 PM 35.3833 -97.4797 182° South 265 305 4,400 -689 Descending Fort Worth Center
Thu 08:32:15 PM 35.3186 -97.4872 185° South 215 247 4,000 -595 Descending Fort Worth Center
Thu 08:33:15 PM 35.2789 -97.5178 212° Southwest 175 201 3,200 -496 Descending Fort Worth Center
Thu 08:34:16 PM 35.2914 -97.5661 288° West 153 176 3,000 -443 Descending Fort Worth Center
Thu 08:35:17 PM 35.3247 -97.5942 326° Northwest 133 153 2,300 -645 Descending Fort Worth Center
Thu 08:36:17 PM 35.3581 -97.5942 360° North 116 133 1,700 -600 Descending Fort Worth Center

Login

Don't have an account? Register now (free) for customized features, flight alerts, and more!